Grant Co International Airport
KMWH : now visible

Airfield :











YOU CAN JOIN US ON...

 
LOGIN :

Register | Disclaimer

   EN    FR    IT 

 









Legend :    VFR   Marginal VFR   IFR   Intensive IFR   Very Intensive IFR
Visi :
Ceiling :
>= 8 km
>= 3000ft
5 to 8 km
1000 to 3000 ft
1500m to 5 km
500 to 1000 ft
800 to 1500m
200 to 500 ft
< 800m
< 200 ft
Symbols :   Thunderstorms  Fog  Heavy snow  Heavy precipitations  Wind > 20 kt






- Airport Elevation : 1189 ft


KMWH - Grant Co International

CURRENT METAR :
  • 111952Z 10005KT 10SM CLR 08/M01 A3041 RMK AO2 SLP308 T00831011

EXPIRED METARs :
  • 111852Z 06005KT 10SM CLR 07/M02 A3046 RMK AO2 SLP323 T00671022
  • 111752Z 03004KT 10SM CLR 06/M02 A3047 RMK AO2 SLP328 T00561022 10056 21006 50000

TAF KMWH
Valid from the 11 at 18:00 until the 12 at 18:00 UTC


111739Z 1118/1218 03006KT P6SM BKN180
FM112300 33005KT P6SM BKN180
FM120400 36005KT P6SM SCT200
FM121000 01004KT P6SM BKN120 OVC150
FM121600 VRB03KT P6SM OVC100



MET'MAP, your aeronautical weather chart ! - Copyright ORBIFLY December 2007 - Disclaimer

ORBIFLY MET'MAP TEAM :

Programming & Development : Alexandra Zaïnal
Concept & Development : Baudouin d'Aumeries
Co-Development & Prog : Marc-Olivier Méhu
Technical & hardware support : Manuel Goepfert

Contact : metmap@orbifly.com




SOURCES & CREDITS :

   NOAA       Earth
Advisory